sensor_id;sensor_type;location;lat;lon;timestamp;pressure;altitude;pressure_sealevel;temperature;humidity
7614;BME280;3848;42.016;23.098;2023-05-23T00:00:11;96849.31;;;16.09;100.00
7614;BME280;3848;42.016;23.098;2023-05-23T00:02:38;96864.41;;;16.16;100.00
7614;BME280;3848;42.016;23.098;2023-05-23T00:05:06;96859.34;;;16.15;100.00
7614;BME280;3848;42.016;23.098;2023-05-23T00:07:34;96862.84;;;16.12;100.00
7614;BME280;3848;42.016;23.098;2023-05-23T00:10:01;96861.13;;;16.13;100.00
7614;BME280;3848;42.016;23.098;2023-05-23T00:12:28;96864.69;;;16.09;100.00
7614;BME280;3848;42.016;23.098;2023-05-23T00:14:55;96868.16;;;16.08;100.00
7614;BME280;3848;42.016;23.098;2023-05-23T00:17:22;96870.66;;;16.09;100.00
7614;BME280;3848;42.016;23.098;2023-05-23T00:19:50;96866.41;;;16.08;100.00
7614;BME280;3848;42.016;23.098;2023-05-23T00:22:17;96861.44;;;16.04;100.00
7614;BME280;3848;42.016;23.098;2023-05-23T00:24:45;96865.78;;;16.02;100.00
7614;BME280;3848;42.016;23.098;2023-05-23T00:27:12;96860.63;;;16.02;100.00
7614;BME280;3848;42.016;23.098;2023-05-23T00:29:39;96871.88;;;15.98;100.00
7614;BME280;3848;42.016;23.098;2023-05-23T00:32:06;96871.94;;;15.96;100.00
7614;BME280;3848;42.016;23.098;2023-05-23T00:34:32;96874.63;;;15.93;100.00
7614;BME280;3848;42.016;23.098;2023-05-23T00:37:01;96871.06;;;15.97;100.00
7614;BME280;3848;42.016;23.098;2023-05-23T00:39:27;96875.44;;;15.94;100.00
7614;BME280;3848;42.016;23.098;2023-05-23T00:41:55;96878.06;;;15.92;100.00
7614;BME280;3848;42.016;23.098;2023-05-23T00:44:22;96875.56;;;15.91;100.00
7614;BME280;3848;42.016;23.098;2023-05-23T00:46:51;96885.81;;;15.91;100.00
7614;BME280;3848;42.016;23.098;2023-05-23T00:49:18;96882.56;;;15.85;100.00
7614;BME280;3848;42.016;23.098;2023-05-23T00:51:45;96875.47;;;15.67;100.00
7614;BME280;3848;42.016;23.098;2023-05-23T00:54:13;96889.84;;;15.71;100.00
7614;BME280;3848;42.016;23.098;2023-05-23T00:56:42;96878.97;;;15.65;100.00
7614;BME280;3848;42.016;23.098;2023-05-23T00:59:10;96889.97;;;15.68;100.00
7614;BME280;3848;42.016;23.098;2023-05-23T01:01:39;96888.47;;;15.61;100.00
7614;BME280;3848;42.016;23.098;2023-05-23T01:04:06;96891.91;;;15.60;100.00
7614;BME280;3848;42.016;23.098;2023-05-23T01:06:32;96885.22;;;15.54;100.00
7614;BME280;3848;42.016;23.098;2023-05-23T01:09:01;96887.91;;;15.51;100.00
7614;BME280;3848;42.016;23.098;2023-05-23T01:11:33;96884.50;;;15.51;100.00
7614;BME280;3848;42.016;23.098;2023-05-23T01:14:05;96884.56;;;15.49;100.00
7614;BME280;3848;42.016;23.098;2023-05-23T01:16:42;96875.47;;;15.39;100.00
7614;BME280;3848;42.016;23.098;2023-05-23T01:19:28;96882.59;;;15.30;100.00
7614;BME280;3848;42.016;23.098;2023-05-23T01:22:07;96875.28;;;15.17;100.00
7614;BME280;3848;42.016;23.098;2023-05-23T01:24:44;96883.06;;;15.14;100.00
7614;BME280;3848;42.016;23.098;2023-05-23T01:27:22;96875.59;;;15.08;100.00
7614;BME280;3848;42.016;23.098;2023-05-23T01:29:57;96867.31;;;15.00;100.00
7614;BME280;3848;42.016;23.098;2023-05-23T01:32:27;96870.88;;;14.94;100.00
7614;BME280;3848;42.016;23.098;2023-05-23T01:34:55;96871.19;;;14.84;100.00
7614;BME280;3848;42.016;23.098;2023-05-23T01:37:22;96873.16;;;14.74;100.00
7614;BME280;3848;42.016;23.098;2023-05-23T01:39:49;96868.94;;;14.73;100.00
7614;BME280;3848;42.016;23.098;2023-05-23T01:42:16;96865.69;;;14.68;100.00
7614;BME280;3848;42.016;23.098;2023-05-23T01:44:44;96854.88;;;14.58;100.00
7614;BME280;3848;42.016;23.098;2023-05-23T01:47:14;96870.19;;;14.60;100.00
7614;BME280;3848;42.016;23.098;2023-05-23T01:49:42;96861.03;;;14.51;100.00
7614;BME280;3848;42.016;23.098;2023-05-23T01:52:10;96872.06;;;14.53;100.00
7614;BME280;3848;42.016;23.098;2023-05-23T01:54:38;96866.31;;;14.45;100.00
7614;BME280;3848;42.016;23.098;2023-05-23T01:57:08;96880.16;;;14.37;100.00
7614;BME280;3848;42.016;23.098;2023-05-23T01:59:35;96873.75;;;14.22;100.00
7614;BME280;3848;42.016;23.098;2023-05-23T02:02:03;96828.00;;;13.80;100.00
7614;BME280;3848;42.016;23.098;2023-05-23T02:04:31;96867.94;;;14.15;100.00
7614;BME280;3848;42.016;23.098;2023-05-23T02:06:58;96868.88;;;14.13;100.00
7614;BME280;3848;42.016;23.098;2023-05-23T02:09:25;96863.00;;;14.09;100.00
7614;BME280;3848;42.016;23.098;2023-05-23T02:11:52;96884.97;;;14.16;100.00
7614;BME280;3848;42.016;23.098;2023-05-23T02:14:20;96876.53;;;14.13;100.00
7614;BME280;3848;42.016;23.098;2023-05-23T02:16:48;96881.75;;;14.08;100.00
7614;BME280;3848;42.016;23.098;2023-05-23T02:19:17;96874.13;;;14.07;100.00
7614;BME280;3848;42.016;23.098;2023-05-23T02:21:45;96871.03;;;13.95;100.00
7614;BME280;3848;42.016;23.098;2023-05-23T02:24:12;96883.06;;;13.90;100.00
7614;BME280;3848;42.016;23.098;2023-05-23T02:26:38;96880.69;;;13.84;100.00
7614;BME280;3848;42.016;23.098;2023-05-23T02:29:06;96878.38;;;13.73;100.00
7614;BME280;3848;42.016;23.098;2023-05-23T02:31:33;96887.13;;;13.65;100.00
7614;BME280;3848;42.016;23.098;2023-05-23T02:33:59;96884.69;;;13.60;100.00
7614;BME280;3848;42.016;23.098;2023-05-23T02:36:26;96884.78;;;13.56;100.00
7614;BME280;3848;42.016;23.098;2023-05-23T02:38:54;96877.16;;;13.54;100.00
7614;BME280;3848;42.016;23.098;2023-05-23T02:41:21;96884.00;;;13.54;100.00
7614;BME280;3848;42.016;23.098;2023-05-23T02:43:48;96878.13;;;13.49;100.00
7614;BME280;3848;42.016;23.098;2023-05-23T02:46:15;96881.72;;;13.41;100.00
7614;BME280;3848;42.016;23.098;2023-05-23T02:48:42;96891.06;;;13.42;100.00
7614;BME280;3848;42.016;23.098;2023-05-23T02:51:09;96879.34;;;13.34;100.00
7614;BME280;3848;42.016;23.098;2023-05-23T02:53:38;96872.56;;;13.31;100.00
7614;BME280;3848;42.016;23.098;2023-05-23T02:56:06;96888.81;;;13.29;100.00
7614;BME280;3848;42.016;23.098;2023-05-23T02:58:34;96893.00;;;13.31;100.00
7614;BME280;3848;42.016;23.098;2023-05-23T03:01:01;96884.53;;;13.29;100.00
7614;BME280;3848;42.016;23.098;2023-05-23T03:03:28;96888.00;;;13.27;100.00
7614;BME280;3848;42.016;23.098;2023-05-23T03:05:55;96889.84;;;13.20;100.00
7614;BME280;3848;42.016;23.098;2023-05-23T03:08:22;96896.56;;;13.24;100.00
7614;BME280;3848;42.016;23.098;2023-05-23T03:10:49;96878.91;;;13.15;100.00
7614;BME280;3848;42.016;23.098;2023-05-23T03:13:18;96877.09;;;13.20;100.00
7614;BME280;3848;42.016;23.098;2023-05-23T03:15:44;96890.47;;;13.30;100.00
7614;BME280;3848;42.016;23.098;2023-05-23T03:18:11;96886.19;;;13.32;100.00
7614;BME280;3848;42.016;23.098;2023-05-23T03:20:38;96784.00;;;12.62;100.00
7614;BME280;3848;42.016;23.098;2023-05-23T03:23:05;96885.44;;;13.27;100.00
7614;BME280;3848;42.016;23.098;2023-05-23T03:25:31;96886.16;;;13.33;100.00
7614;BME280;3848;42.016;23.098;2023-05-23T03:27:58;96887.81;;;13.36;100.00
7614;BME280;3848;42.016;23.098;2023-05-23T03:30:27;96885.34;;;13.33;100.00
7614;BME280;3848;42.016;23.098;2023-05-23T03:32:53;96884.44;;;13.34;100.00
7614;BME280;3848;42.016;23.098;2023-05-23T03:35:20;96892.19;;;13.29;100.00
7614;BME280;3848;42.016;23.098;2023-05-23T03:37:47;96888.03;;;13.25;100.00
7614;BME280;3848;42.016;23.098;2023-05-23T03:40:14;96905.63;;;13.37;100.00
7614;BME280;3848;42.016;23.098;2023-05-23T03:42:40;96904.69;;;13.41;100.00
7614;BME280;3848;42.016;23.098;2023-05-23T03:45:07;96900.38;;;13.43;100.00
7614;BME280;3848;42.016;23.098;2023-05-23T03:47:35;96904.50;;;13.49;100.00
7614;BME280;3848;42.016;23.098;2023-05-23T03:50:02;96905.34;;;13.50;100.00
7614;BME280;3848;42.016;23.098;2023-05-23T03:52:29;96901.09;;;13.49;100.00
7614;BME280;3848;42.016;23.098;2023-05-23T03:54:56;96894.41;;;13.45;100.00
7614;BME280;3848;42.016;23.098;2023-05-23T03:57:22;96896.06;;;13.46;100.00
7614;BME280;3848;42.016;23.098;2023-05-23T03:59:49;96891.88;;;13.43;100.00
7614;BME280;3848;42.016;23.098;2023-05-23T04:02:16;96899.38;;;13.49;100.00
7614;BME280;3848;42.016;23.098;2023-05-23T04:04:44;96895.09;;;13.51;100.00
7614;BME280;3848;42.016;23.098;2023-05-23T04:07:11;96890.78;;;13.55;100.00
7614;BME280;3848;42.016;23.098;2023-05-23T04:09:40;96889.78;;;13.60;100.00
7614;BME280;3848;42.016;23.098;2023-05-23T04:12:07;96894.72;;;13.66;100.00
7614;BME280;3848;42.016;23.098;2023-05-23T04:14:34;96899.69;;;13.72;100.00
7614;BME280;3848;42.016;23.098;2023-05-23T04:17:01;96899.56;;;13.79;100.00
7614;BME280;3848;42.016;23.098;2023-05-23T04:19:28;96905.31;;;13.87;100.00
7614;BME280;3848;42.016;23.098;2023-05-23T04:21:56;96909.63;;;13.85;100.00
7614;BME280;3848;42.016;23.098;2023-05-23T04:24:23;96913.69;;;13.92;100.00
7614;BME280;3848;42.016;23.098;2023-05-23T04:26:50;96916.09;;;13.98;100.00
7614;BME280;3848;42.016;23.098;2023-05-23T04:29:17;96915.09;;;14.03;100.00
7614;BME280;3848;42.016;23.098;2023-05-23T04:31:45;96903.38;;;13.96;100.00
7614;BME280;3848;42.016;23.098;2023-05-23T04:34:11;96916.63;;;14.11;100.00
7614;BME280;3848;42.016;23.098;2023-05-23T04:36:38;96914.91;;;14.11;100.00
7614;BME280;3848;42.016;23.098;2023-05-23T04:39:10;96910.44;;;14.19;100.00
7614;BME280;3848;42.016;23.098;2023-05-23T04:41:38;96915.41;;;14.25;100.00
7614;BME280;3848;42.016;23.098;2023-05-23T04:44:04;96911.88;;;14.29;100.00
7614;BME280;3848;42.016;23.098;2023-05-23T04:46:31;96910.16;;;14.30;100.00
7614;BME280;3848;42.016;23.098;2023-05-23T04:48:58;96909.97;;;14.36;100.00
7614;BME280;3848;42.016;23.098;2023-05-23T04:51:25;96907.41;;;14.38;100.00
7614;BME280;3848;42.016;23.098;2023-05-23T04:53:51;96898.81;;;14.40;100.00
7614;BME280;3848;42.016;23.098;2023-05-23T04:56:20;96913.13;;;14.47;100.00
7614;BME280;3848;42.016;23.098;2023-05-23T04:58:46;96918.13;;;14.52;100.00
7614;BME280;3848;42.016;23.098;2023-05-23T05:01:13;96914.53;;;14.59;100.00
7614;BME280;3848;42.016;23.098;2023-05-23T05:03:40;96915.19;;;14.66;100.00
7614;BME280;3848;42.016;23.098;2023-05-23T05:06:07;96916.72;;;14.71;100.00
7614;BME280;3848;42.016;23.098;2023-05-23T05:08:34;96861.97;;;14.49;100.00
7614;BME280;3848;42.016;23.098;2023-05-23T05:11:01;96909.56;;;14.84;100.00
7614;BME280;3848;42.016;23.098;2023-05-23T05:13:29;96905.09;;;14.90;100.00
7614;BME280;3848;42.016;23.098;2023-05-23T05:15:56;96914.22;;;14.99;100.00
7614;BME280;3848;42.016;23.098;2023-05-23T05:18:24;96919.09;;;15.08;100.00
7614;BME280;3848;42.016;23.098;2023-05-23T05:20:51;96917.22;;;15.13;100.00
7614;BME280;3848;42.016;23.098;2023-05-23T05:23:18;96909.44;;;15.16;100.00
7614;BME280;3848;42.016;23.098;2023-05-23T05:25:45;96918.81;;;15.17;100.00
7614;BME280;3848;42.016;23.098;2023-05-23T05:28:12;96912.09;;;15.13;100.00
7614;BME280;3848;42.016;23.098;2023-05-23T05:30:40;96900.38;;;15.06;100.00
7614;BME280;3848;42.016;23.098;2023-05-23T05:33:07;96910.34;;;15.15;100.00
7614;BME280;3848;42.016;23.098;2023-05-23T05:35:34;96912.00;;;15.16;100.00
7614;BME280;3848;42.016;23.098;2023-05-23T05:38:02;96898.50;;;15.11;100.00
7614;BME280;3848;42.016;23.098;2023-05-23T05:40:30;96913.53;;;15.23;100.00
7614;BME280;3848;42.016;23.098;2023-05-23T05:42:57;96913.31;;;15.30;100.00
7614;BME280;3848;42.016;23.098;2023-05-23T05:45:24;96883.13;;;15.13;100.00
7614;BME280;3848;42.016;23.098;2023-05-23T05:47:52;96911.41;;;15.36;100.00
7614;BME280;3848;42.016;23.098;2023-05-23T05:50:19;96912.13;;;15.41;100.00
7614;BME280;3848;42.016;23.098;2023-05-23T05:52:46;96907.19;;;15.35;100.00
7614;BME280;3848;42.016;23.098;2023-05-23T05:55:13;96903.63;;;15.39;100.00
7614;BME280;3848;42.016;23.098;2023-05-23T05:57:40;96916.06;;;15.51;100.00
7614;BME280;3848;42.016;23.098;2023-05-23T06:00:09;96897.41;;;15.48;100.00
7614;BME280;3848;42.016;23.098;2023-05-23T06:02:39;96910.59;;;15.64;100.00
7614;BME280;3848;42.016;23.098;2023-05-23T06:05:08;96904.13;;;15.78;100.00
7614;BME280;3848;42.016;23.098;2023-05-23T06:07:37;96893.66;;;15.86;100.00
7614;BME280;3848;42.016;23.098;2023-05-23T06:10:04;96905.03;;;16.02;100.00
7614;BME280;3848;42.016;23.098;2023-05-23T06:12:32;96904.66;;;16.14;100.00
7614;BME280;3848;42.016;23.098;2023-05-23T06:14:58;96901.88;;;16.21;100.00
7614;BME280;3848;42.016;23.098;2023-05-23T06:17:25;96885.66;;;16.20;100.00
7614;BME280;3848;42.016;23.098;2023-05-23T06:19:52;96896.28;;;16.34;100.00
7614;BME280;3848;42.016;23.098;2023-05-23T06:22:20;96894.06;;;16.49;100.00
7614;BME280;3848;42.016;23.098;2023-05-23T06:24:47;96892.19;;;16.54;100.00
7614;BME280;3848;42.016;23.098;2023-05-23T06:27:14;96893.06;;;16.53;100.00
7614;BME280;3848;42.016;23.098;2023-05-23T06:29:40;96899.75;;;16.57;100.00
7614;BME280;3848;42.016;23.098;2023-05-23T06:32:07;96897.91;;;16.60;100.00
7614;BME280;3848;42.016;23.098;2023-05-23T06:34:34;96885.81;;;16.64;100.00
7614;BME280;3848;42.016;23.098;2023-05-23T06:37:01;96878.06;;;16.67;100.00
7614;BME280;3848;42.016;23.098;2023-05-23T06:39:29;96894.22;;;16.92;100.00
7614;BME280;3848;42.016;23.098;2023-05-23T06:41:55;96886.41;;;16.95;100.00
7614;BME280;3848;42.016;23.098;2023-05-23T06:44:22;96880.31;;;16.98;100.00
7614;BME280;3848;42.016;23.098;2023-05-23T06:46:49;96878.47;;;17.01;100.00
7614;BME280;3848;42.016;23.098;2023-05-23T06:49:21;96882.25;;;17.15;100.00
7614;BME280;3848;42.016;23.098;2023-05-23T06:51:48;96878.53;;;17.22;100.00
7614;BME280;3848;42.016;23.098;2023-05-23T06:54:15;96879.03;;;17.31;100.00
7614;BME280;3848;42.016;23.098;2023-05-23T06:56:43;96868.78;;;17.31;100.00
7614;BME280;3848;42.016;23.098;2023-05-23T06:59:10;96872.13;;;17.33;100.00
7614;BME280;3848;42.016;23.098;2023-05-23T07:01:37;96859.72;;;17.43;100.00
7614;BME280;3848;42.016;23.098;2023-05-23T07:04:04;96850.09;;;17.48;100.00
7614;BME280;3848;42.016;23.098;2023-05-23T07:06:31;96869.88;;;17.68;100.00
7614;BME280;3848;42.016;23.098;2023-05-23T07:09:00;96861.94;;;17.74;100.00
7614;BME280;3848;42.016;23.098;2023-05-23T07:11:26;96858.03;;;17.86;100.00
7614;BME280;3848;42.016;23.098;2023-05-23T07:13:55;96847.31;;;17.96;100.00
7614;BME280;3848;42.016;23.098;2023-05-23T07:16:21;96852.13;;;18.04;100.00
7614;BME280;3848;42.016;23.098;2023-05-23T07:18:49;96851.63;;;18.16;100.00
7614;BME280;3848;42.016;23.098;2023-05-23T07:21:16;96848.00;;;18.20;100.00
7614;BME280;3848;42.016;23.098;2023-05-23T07:23:42;96843.34;;;18.28;100.00
7614;BME280;3848;42.016;23.098;2023-05-23T07:26:09;96832.53;;;18.41;100.00
7614;BME280;3848;42.016;23.098;2023-05-23T07:28:36;96833.84;;;18.49;100.00
7614;BME280;3848;42.016;23.098;2023-05-23T07:31:04;96832.44;;;18.63;100.00
7614;BME280;3848;42.016;23.098;2023-05-23T07:33:33;96828.50;;;18.74;100.00
7614;BME280;3848;42.016;23.098;2023-05-23T07:36:00;96829.59;;;18.87;100.00
7614;BME280;3848;42.016;23.098;2023-05-23T07:38:27;96815.75;;;18.90;100.00
7614;BME280;3848;42.016;23.098;2023-05-23T07:40:53;96832.56;;;19.16;100.00
7614;BME280;3848;42.016;23.098;2023-05-23T07:43:20;96833.13;;;19.23;100.00
7614;BME280;3848;42.016;23.098;2023-05-23T07:45:47;96824.09;;;19.31;100.00
7614;BME280;3848;42.016;23.098;2023-05-23T07:48:15;96827.75;;;19.44;100.00
7614;BME280;3848;42.016;23.098;2023-05-23T07:50:42;96819.34;;;19.60;100.00
7614;BME280;3848;42.016;23.098;2023-05-23T07:53:09;96818.94;;;19.85;100.00
7614;BME280;3848;42.016;23.098;2023-05-23T07:55:35;96807.47;;;19.90;100.00
7614;BME280;3848;42.016;23.098;2023-05-23T07:58:02;96810.56;;;20.14;100.00
7614;BME280;3848;42.016;23.098;2023-05-23T08:00:30;96809.94;;;20.26;100.00
7614;BME280;3848;42.016;23.098;2023-05-23T08:02:56;96804.19;;;20.37;100.00
7614;BME280;3848;42.016;23.098;2023-05-23T08:05:25;96806.38;;;20.62;100.00
7614;BME280;3848;42.016;23.098;2023-05-23T08:07:51;96802.47;;;20.86;100.00
7614;BME280;3848;42.016;23.098;2023-05-23T08:10:19;96801.56;;;21.03;100.00
7614;BME280;3848;42.016;23.098;2023-05-23T08:12:46;96797.34;;;21.16;100.00
7614;BME280;3848;42.016;23.098;2023-05-23T08:15:13;96797.94;;;21.37;100.00
7614;BME280;3848;42.016;23.098;2023-05-23T08:17:40;96784.34;;;21.64;100.00
7614;BME280;3848;42.016;23.098;2023-05-23T08:20:07;96783.75;;;21.88;100.00
7614;BME280;3848;42.016;23.098;2023-05-23T08:22:37;96787.31;;;22.16;100.00
7614;BME280;3848;42.016;23.098;2023-05-23T08:25:05;96782.63;;;22.37;100.00
7614;BME280;3848;42.016;23.098;2023-05-23T08:27:32;96777.53;;;22.49;91.25
7614;BME280;3848;42.016;23.098;2023-05-23T08:30:00;96765.75;;;22.44;87.08
7614;BME280;3848;42.016;23.098;2023-05-23T08:32:27;96777.53;;;22.49;84.84
7614;BME280;3848;42.016;23.098;2023-05-23T08:34:54;96770.75;;;22.61;85.78
7614;BME280;3848;42.016;23.098;2023-05-23T08:37:20;96751.75;;;22.75;100.00
7614;BME280;3848;42.016;23.098;2023-05-23T08:39:49;96770.47;;;23.07;85.01
7614;BME280;3848;42.016;23.098;2023-05-23T08:42:16;96757.56;;;23.20;83.29
7614;BME280;3848;42.016;23.098;2023-05-23T08:44:43;96769.56;;;23.48;82.50
7614;BME280;3848;42.016;23.098;2023-05-23T08:47:11;96759.97;;;23.62;76.34
7614;BME280;3848;42.016;23.098;2023-05-23T08:49:42;96762.38;;;23.78;80.34
7614;BME280;3848;42.016;23.098;2023-05-23T08:52:11;96744.13;;;23.80;67.47
7614;BME280;3848;42.016;23.098;2023-05-23T08:54:38;96747.94;;;23.87;60.39
7614;BME280;3848;42.016;23.098;2023-05-23T08:57:07;96744.22;;;24.03;59.66
7614;BME280;3848;42.016;23.098;2023-05-23T08:59:35;96733.19;;;24.25;62.11
7614;BME280;3848;42.016;23.098;2023-05-23T09:02:07;96730.41;;;24.28;58.57
7614;BME280;3848;42.016;23.098;2023-05-23T09:04:39;96733.09;;;24.40;57.19
7614;BME280;3848;42.016;23.098;2023-05-23T09:07:05;96722.28;;;24.46;53.64
7614;BME280;3848;42.016;23.098;2023-05-23T09:09:32;96721.31;;;24.59;54.47
7614;BME280;3848;42.016;23.098;2023-05-23T09:11:59;96722.88;;;24.86;55.30
7614;BME280;3848;42.016;23.098;2023-05-23T09:14:29;96717.53;;;25.24;59.15
7614;BME280;3848;42.016;23.098;2023-05-23T09:16:59;96711.25;;;25.62;57.20
7614;BME280;3848;42.016;23.098;2023-05-23T09:19:27;96708.09;;;25.92;52.64
7614;BME280;3848;42.016;23.098;2023-05-23T09:21:54;96664.44;;;26.06;52.30
7614;BME280;3848;42.016;23.098;2023-05-23T09:24:21;96697.59;;;26.49;50.11
7614;BME280;3848;42.016;23.098;2023-05-23T09:26:48;96702.63;;;26.62;48.32
7614;BME280;3848;42.016;23.098;2023-05-23T09:29:18;96697.00;;;26.34;47.12
7614;BME280;3848;42.016;23.098;2023-05-23T09:31:46;96691.88;;;26.33;49.46
7614;BME280;3848;42.016;23.098;2023-05-23T09:34:13;96698.88;;;26.32;49.89
7614;BME280;3848;42.016;23.098;2023-05-23T09:36:40;96696.63;;;26.39;52.97
7614;BME280;3848;42.016;23.098;2023-05-23T09:39:10;96686.47;;;26.36;47.31
7614;BME280;3848;42.016;23.098;2023-05-23T09:41:37;96684.50;;;26.60;54.92
7614;BME280;3848;42.016;23.098;2023-05-23T09:44:06;96682.88;;;26.91;47.96
7614;BME280;3848;42.016;23.098;2023-05-23T09:46:35;96670.44;;;26.84;47.30
7614;BME280;3848;42.016;23.098;2023-05-23T09:49:14;96669.03;;;26.91;46.84
7614;BME280;3848;42.016;23.098;2023-05-23T09:51:41;96669.91;;;27.12;45.92
7614;BME280;3848;42.016;23.098;2023-05-23T09:54:08;96661.38;;;27.10;45.60
7614;BME280;3848;42.016;23.098;2023-05-23T09:56:36;96665.31;;;27.25;47.99
7614;BME280;3848;42.016;23.098;2023-05-23T09:59:06;96666.16;;;27.47;45.95
7614;BME280;3848;42.016;23.098;2023-05-23T10:01:35;96653.22;;;27.66;44.62
7614;BME280;3848;42.016;23.098;2023-05-23T10:04:04;96648.31;;;28.03;48.16
7614;BME280;3848;42.016;23.098;2023-05-23T10:06:40;96647.22;;;28.36;42.72
7614;BME280;3848;42.016;23.098;2023-05-23T10:09:12;96644.19;;;28.50;44.17
7614;BME280;3848;42.016;23.098;2023-05-23T10:14:49;96640.94;;;29.26;38.42
7614;BME280;3848;42.016;23.098;2023-05-23T10:17:19;96639.00;;;29.28;43.89
7614;BME280;3848;42.016;23.098;2023-05-23T10:19:54;96647.41;;;29.31;38.30
7614;BME280;3848;42.016;23.098;2023-05-23T10:22:24;96638.44;;;29.63;40.47
7614;BME280;3848;42.016;23.098;2023-05-23T10:24:51;96636.38;;;29.94;41.10
7614;BME280;3848;42.016;23.098;2023-05-23T10:27:19;96618.97;;;30.30;39.04
7614;BME280;3848;42.016;23.098;2023-05-23T10:29:46;96631.13;;;30.31;34.70
7614;BME280;3848;42.016;23.098;2023-05-23T10:32:14;96627.97;;;30.27;36.03
7614;BME280;3848;42.016;23.098;2023-05-23T10:34:50;96626.31;;;29.89;35.89
7614;BME280;3848;42.016;23.098;2023-05-23T10:37:23;96625.91;;;29.47;35.21
7614;BME280;3848;42.016;23.098;2023-05-23T10:39:58;96621.13;;;28.94;33.47
7614;BME280;3848;42.016;23.098;2023-05-23T10:42:37;96627.41;;;28.43;35.87
7614;BME280;3848;42.016;23.098;2023-05-23T10:45:14;96604.59;;;28.65;38.25
7614;BME280;3848;42.016;23.098;2023-05-23T10:47:41;96606.25;;;29.04;34.33
7614;BME280;3848;42.016;23.098;2023-05-23T10:50:16;96607.66;;;28.99;35.16
7614;BME280;3848;42.016;23.098;2023-05-23T10:52:56;96607.63;;;28.70;37.68
7614;BME280;3848;42.016;23.098;2023-05-23T10:55:23;96610.53;;;28.86;33.80
7614;BME280;3848;42.016;23.098;2023-05-23T10:58:11;96609.13;;;29.21;32.90
7614;BME280;3848;42.016;23.098;2023-05-23T11:00:38;96609.47;;;29.55;37.01
7614;BME280;3848;42.016;23.098;2023-05-23T11:03:05;96606.88;;;29.92;34.68
7614;BME280;3848;42.016;23.098;2023-05-23T11:05:34;96596.19;;;30.30;34.25
7614;BME280;3848;42.016;23.098;2023-05-23T11:08:08;96591.53;;;30.70;31.94
7614;BME280;3848;42.016;23.098;2023-05-23T11:10:53;96597.13;;;31.10;35.22
7614;BME280;3848;42.016;23.098;2023-05-23T11:13:21;96590.22;;;31.09;31.17
7614;BME280;3848;42.016;23.098;2023-05-23T11:15:49;96589.75;;;31.14;31.45
7614;BME280;3848;42.016;23.098;2023-05-23T11:18:21;96584.97;;;31.27;32.02
7614;BME280;3848;42.016;23.098;2023-05-23T11:20:51;96587.59;;;31.61;33.73
7614;BME280;3848;42.016;23.098;2023-05-23T11:23:18;96587.63;;;31.95;32.28
7614;BME280;3848;42.016;23.098;2023-05-23T11:25:47;96584.59;;;32.24;33.31
7614;BME280;3848;42.016;23.098;2023-05-23T11:28:15;96597.66;;;32.42;29.04
7614;BME280;3848;42.016;23.098;2023-05-23T11:30:42;96590.69;;;32.25;31.01
7614;BME280;3848;42.016;23.098;2023-05-23T11:33:10;96589.59;;;32.43;29.52
7614;BME280;3848;42.016;23.098;2023-05-23T11:35:39;96573.50;;;31.88;28.83
7614;BME280;3848;42.016;23.098;2023-05-23T11:38:07;96589.88;;;31.56;30.20
7614;BME280;3848;42.016;23.098;2023-05-23T11:40:36;96586.34;;;30.95;28.59
7614;BME280;3848;42.016;23.098;2023-05-23T11:43:04;96576.44;;;30.54;28.07
7614;BME280;3848;42.016;23.098;2023-05-23T11:45:32;96579.41;;;30.23;29.48
7614;BME280;3848;42.016;23.098;2023-05-23T11:48:04;96585.31;;;29.98;30.76
7614;BME280;3848;42.016;23.098;2023-05-23T11:50:31;96575.72;;;29.61;29.99
7614;BME280;3848;42.016;23.098;2023-05-23T11:52:58;96577.16;;;29.27;31.20
7614;BME280;3848;42.016;23.098;2023-05-23T11:55:26;96563.56;;;28.84;31.32
7614;BME280;3848;42.016;23.098;2023-05-23T11:57:55;96576.09;;;28.62;30.14
7614;BME280;3848;42.016;23.098;2023-05-23T12:00:22;96575.13;;;28.43;34.48
7614;BME280;3848;42.016;23.098;2023-05-23T12:02:49;96568.91;;;28.25;31.49
7614;BME280;3848;42.016;23.098;2023-05-23T12:05:15;96576.47;;;28.28;31.27
7614;BME280;3848;42.016;23.098;2023-05-23T12:07:44;96568.19;;;28.23;33.30
7614;BME280;3848;42.016;23.098;2023-05-23T12:10:11;96572.03;;;28.19;33.08
7614;BME280;3848;42.016;23.098;2023-05-23T12:12:40;96559.97;;;28.28;32.21
7614;BME280;3848;42.016;23.098;2023-05-23T12:15:08;96562.19;;;28.80;29.54
7614;BME280;3848;42.016;23.098;2023-05-23T12:17:36;96554.53;;;29.35;29.66
7614;BME280;3848;42.016;23.098;2023-05-23T12:20:04;96547.63;;;29.81;30.53
7614;BME280;3848;42.016;23.098;2023-05-23T12:22:31;96543.97;;;30.37;30.42
7614;BME280;3848;42.016;23.098;2023-05-23T12:24:58;96540.59;;;30.80;32.82
7614;BME280;3848;42.016;23.098;2023-05-23T12:27:28;96532.38;;;31.19;30.66
7614;BME280;3848;42.016;23.098;2023-05-23T12:30:05;96528.97;;;31.52;27.37
7614;BME280;3848;42.016;23.098;2023-05-23T12:32:33;96526.00;;;31.47;27.97
7614;BME280;3848;42.016;23.098;2023-05-23T12:35:00;96528.75;;;31.80;27.45
7614;BME280;3848;42.016;23.098;2023-05-23T12:37:27;96522.75;;;31.96;28.34
7614;BME280;3848;42.016;23.098;2023-05-23T12:39:55;96535.78;;;32.13;27.60
7614;BME280;3848;42.016;23.098;2023-05-23T12:42:22;96512.41;;;32.02;27.52
7614;BME280;3848;42.016;23.098;2023-05-23T12:44:50;96512.59;;;32.09;28.06
7614;BME280;3848;42.016;23.098;2023-05-23T12:47:20;96527.28;;;32.28;28.32
7614;BME280;3848;42.016;23.098;2023-05-23T12:49:46;96509.22;;;32.33;27.71
7614;BME280;3848;42.016;23.098;2023-05-23T12:52:14;96506.25;;;32.44;29.35
7614;BME280;3848;42.016;23.098;2023-05-23T12:54:40;96504.63;;;32.59;27.89
7614;BME280;3848;42.016;23.098;2023-05-23T12:57:07;96506.75;;;32.88;27.68
7614;BME280;3848;42.016;23.098;2023-05-23T12:59:34;96502.31;;;32.97;26.56
7614;BME280;3848;42.016;23.098;2023-05-23T13:02:01;96505.75;;;33.14;27.64
7614;BME280;3848;42.016;23.098;2023-05-23T13:04:30;96506.88;;;33.19;28.89
7614;BME280;3848;42.016;23.098;2023-05-23T13:06:57;96514.28;;;33.08;26.45
7614;BME280;3848;42.016;23.098;2023-05-23T13:09:32;96504.25;;;33.19;26.55
7614;BME280;3848;42.016;23.098;2023-05-23T13:12:00;96499.13;;;33.34;26.48